Van Meter, IA (50261)

2:33 PM CDT on April 19, 2015 (GMT -0500)
Van Meter, Iowa | | Change Station
CLOSE
Current Station
Personal Weather Station
Location: Van Meter, IA
Elevation: 880 ft
Nearby Weather Stations

Elev 880 ft 41.53 °N, 93.95 °W | Updated 3 seconds ago

Overcast
Overcast
58.2 °F
Feels Like 58.2 °F
N
18.0
Wind Variable Wind from NW
Gusts 19.0 mph

Today
High -- | Low -- °F
--% Chance of Precip.
Yesterday
High -- | Low -- °F
Precip. -- in
6:30 AM 8:00 PM
New Moon, 2% visible
Pressure 29.56 in
Visibility 10.0 miles
Clouds Scattered Clouds 1400 ft
Mostly Cloudy 2200 ft
Overcast 3000 ft
Dew Point 57 °F
Humidity 95%
Rainfall 0.05 in
Snow Depth Not available.
UV 0.0 out of 12
Pollen 2.30 out of 12
Air Quality Not available.
Flu Activity Local Activity
METAR KDSM 191854Z 33008KT 10SM SCT014 BKN022 OVC030 18/14 A2957 RMK AO2 SLP010 CB DSNT SW MOV NE T01780139 $

More Conditions Fewer Conditions

Pressure 29.56 in
Visibility 10.0 miles
Clouds Scattered Clouds 1400 ft
Mostly Cloudy 2200 ft
Overcast 3000 ft
Dew Point 57 °F
Humidity 95%
Rainfall 0.05 in
Snow Depth Not available.
UV 0.0 out of 12
Pollen 2.30 out of 12
Air Quality Not available.
Flu Activity Local Activity
METAR KDSM 191854Z 33008KT 10SM SCT014 BKN022 OVC030 18/14 A2957 RMK AO2 SLP010 CB DSNT SW MOV NE T01780139 $

More Conditions Fewer Conditions

10-Day Weather Forecast

Almanac

Astronomy

Apr. 19, 2015 Rise Set
Actual Time
Civil Twilight
Nautical Twilight
Astronomical Twilight
Moon
Length of Visible Light
Length of Day
Tomorrow will be .
, % of the Moon is Illuminated

Today's Extremes

State Highs State Lows

Community

WunderPhotos

Upload Photos

1,814,944 photos uploaded!

WunderBlogs® & News

Nearby

Air Quality

  Air Quality AQ Index Pollutant
Not available.

Snow Depth

Station Depth Elevation

Earthquake Activity

City Distance Mag. Time & Date
Minimum magnitude displayed is 2.5.

Coastal Water Temperatures

Place Temperature

Stations

Nearby Weather Stations

Station Location Temp. Windchill Dew Point Humidity Wind Precip. Elev Updated Type